sensor_id;sensor_type;location;lat;lon;timestamp;P1;durP1;ratioP1;P2;durP2;ratioP2
52816;SDS011;38687;43.330;21.924;2023-04-01T00:00:44;12.10;;;3.63;;
52816;SDS011;38687;43.330;21.924;2023-04-01T00:03:10;6.47;;;2.75;;
52816;SDS011;38687;43.330;21.924;2023-04-01T00:05:39;9.07;;;4.13;;
52816;SDS011;38687;43.330;21.924;2023-04-01T00:08:05;11.63;;;4.85;;
52816;SDS011;38687;43.330;21.924;2023-04-01T00:10:31;11.20;;;5.55;;
52816;SDS011;38687;43.330;21.924;2023-04-01T00:12:56;15.85;;;7.07;;
52816;SDS011;38687;43.330;21.924;2023-04-01T00:15:21;19.45;;;9.30;;
52816;SDS011;38687;43.330;21.924;2023-04-01T00:17:47;12.20;;;4.10;;
52816;SDS011;38687;43.330;21.924;2023-04-01T00:20:13;11.77;;;6.13;;
52816;SDS011;38687;43.330;21.924;2023-04-01T00:22:39;35.92;;;14.30;;
52816;SDS011;38687;43.330;21.924;2023-04-01T00:25:08;26.25;;;10.43;;
52816;SDS011;38687;43.330;21.924;2023-04-01T00:27:34;28.85;;;15.35;;
52816;SDS011;38687;43.330;21.924;2023-04-01T00:30:00;53.90;;;25.30;;
52816;SDS011;38687;43.330;21.924;2023-04-01T00:32:26;13.90;;;5.97;;
52816;SDS011;38687;43.330;21.924;2023-04-01T00:34:51;26.10;;;12.80;;
52816;SDS011;38687;43.330;21.924;2023-04-01T00:37:18;37.80;;;18.00;;
52816;SDS011;38687;43.330;21.924;2023-04-01T00:39:44;21.60;;;10.13;;
52816;SDS011;38687;43.330;21.924;2023-04-01T00:42:10;21.55;;;7.85;;
52816;SDS011;38687;43.330;21.924;2023-04-01T00:44:36;15.40;;;6.57;;
52816;SDS011;38687;43.330;21.924;2023-04-01T00:47:02;20.92;;;10.30;;
52816;SDS011;38687;43.330;21.924;2023-04-01T00:49:32;8.23;;;3.72;;
52816;SDS011;38687;43.330;21.924;2023-04-01T00:52:00;19.90;;;7.82;;
52816;SDS011;38687;43.330;21.924;2023-04-01T00:54:27;33.95;;;14.52;;
52816;SDS011;38687;43.330;21.924;2023-04-01T00:56:55;27.05;;;12.25;;
52816;SDS011;38687;43.330;21.924;2023-04-01T00:59:29;18.02;;;10.30;;
52816;SDS011;38687;43.330;21.924;2023-04-01T01:01:55;55.70;;;30.75;;
52816;SDS011;38687;43.330;21.924;2023-04-01T01:04:28;19.75;;;11.45;;
52816;SDS011;38687;43.330;21.924;2023-04-01T01:12:14;17.13;;;8.65;;
52816;SDS011;38687;43.330;21.924;2023-04-01T01:28:44;6.15;;;3.97;;
52816;SDS011;38687;43.330;21.924;2023-04-01T01:31:19;10.10;;;5.15;;
52816;SDS011;38687;43.330;21.924;2023-04-01T01:33:51;9.70;;;4.88;;
52816;SDS011;38687;43.330;21.924;2023-04-01T01:36:22;12.88;;;5.30;;
52816;SDS011;38687;43.330;21.924;2023-04-01T01:38:53;12.50;;;5.80;;
52816;SDS011;38687;43.330;21.924;2023-04-01T01:41:19;14.27;;;6.25;;
52816;SDS011;38687;43.330;21.924;2023-04-01T01:43:46;8.35;;;4.60;;
52816;SDS011;38687;43.330;21.924;2023-04-01T01:46:13;9.48;;;4.55;;
52816;SDS011;38687;43.330;21.924;2023-04-01T01:48:41;11.90;;;5.22;;
52816;SDS011;38687;43.330;21.924;2023-04-01T01:51:07;13.63;;;6.18;;
52816;SDS011;38687;43.330;21.924;2023-04-01T01:53:33;15.15;;;5.95;;
52816;SDS011;38687;43.330;21.924;2023-04-01T01:55:59;11.43;;;5.40;;
52816;SDS011;38687;43.330;21.924;2023-04-01T01:58:27;8.93;;;4.75;;
52816;SDS011;38687;43.330;21.924;2023-04-01T02:01:06;13.80;;;6.43;;
52816;SDS011;38687;43.330;21.924;2023-04-01T02:03:36;14.15;;;6.13;;
52816;SDS011;38687;43.330;21.924;2023-04-01T02:06:03;9.80;;;4.90;;
52816;SDS011;38687;43.330;21.924;2023-04-01T02:08:35;9.32;;;4.30;;
52816;SDS011;38687;43.330;21.924;2023-04-01T02:11:11;12.32;;;4.28;;
52816;SDS011;38687;43.330;21.924;2023-04-01T02:13:58;9.93;;;4.50;;
52816;SDS011;38687;43.330;21.924;2023-04-01T02:16:35;11.45;;;5.25;;
52816;SDS011;38687;43.330;21.924;2023-04-01T02:19:02;11.50;;;6.10;;
52816;SDS011;38687;43.330;21.924;2023-04-01T02:21:32;13.43;;;6.50;;
52816;SDS011;38687;43.330;21.924;2023-04-01T02:23:58;13.05;;;6.78;;
52816;SDS011;38687;43.330;21.924;2023-04-01T02:26:26;19.08;;;8.25;;
52816;SDS011;38687;43.330;21.924;2023-04-01T02:28:52;16.90;;;8.57;;
52816;SDS011;38687;43.330;21.924;2023-04-01T02:31:18;17.77;;;9.13;;
52816;SDS011;38687;43.330;21.924;2023-04-01T02:33:44;21.50;;;10.82;;
52816;SDS011;38687;43.330;21.924;2023-04-01T02:36:12;22.88;;;11.25;;
52816;SDS011;38687;43.330;21.924;2023-04-01T02:38:38;20.90;;;9.25;;
52816;SDS011;38687;43.330;21.924;2023-04-01T02:41:04;15.50;;;6.85;;
52816;SDS011;38687;43.330;21.924;2023-04-01T02:43:31;13.40;;;6.82;;
52816;SDS011;38687;43.330;21.924;2023-04-01T02:45:56;15.60;;;6.53;;
52816;SDS011;38687;43.330;21.924;2023-04-01T02:48:22;10.27;;;5.20;;
52816;SDS011;38687;43.330;21.924;2023-04-01T02:50:48;10.82;;;5.47;;
52816;SDS011;38687;43.330;21.924;2023-04-01T02:53:14;14.63;;;5.88;;
52816;SDS011;38687;43.330;21.924;2023-04-01T02:55:39;11.05;;;5.97;;
52816;SDS011;38687;43.330;21.924;2023-04-01T02:58:05;12.63;;;6.68;;
52816;SDS011;38687;43.330;21.924;2023-04-01T03:00:30;10.55;;;5.47;;
52816;SDS011;38687;43.330;21.924;2023-04-01T03:02:56;12.05;;;5.00;;
52816;SDS011;38687;43.330;21.924;2023-04-01T03:05:21;9.13;;;3.78;;
52816;SDS011;38687;43.330;21.924;2023-04-01T03:07:47;7.63;;;4.00;;
52816;SDS011;38687;43.330;21.924;2023-04-01T03:10:13;8.10;;;3.80;;
52816;SDS011;38687;43.330;21.924;2023-04-01T03:12:38;7.40;;;3.45;;
52816;SDS011;38687;43.330;21.924;2023-04-01T03:15:04;10.40;;;5.20;;
52816;SDS011;38687;43.330;21.924;2023-04-01T03:17:30;8.52;;;5.22;;
52816;SDS011;38687;43.330;21.924;2023-04-01T03:19:55;11.02;;;5.80;;
52816;SDS011;38687;43.330;21.924;2023-04-01T03:22:20;13.80;;;7.85;;
52816;SDS011;38687;43.330;21.924;2023-04-01T03:24:46;10.77;;;5.55;;
52816;SDS011;38687;43.330;21.924;2023-04-01T03:27:13;8.88;;;4.45;;
52816;SDS011;38687;43.330;21.924;2023-04-01T03:29:38;8.85;;;4.55;;
52816;SDS011;38687;43.330;21.924;2023-04-01T03:32:04;8.35;;;5.15;;
52816;SDS011;38687;43.330;21.924;2023-04-01T03:34:30;9.95;;;4.43;;
52816;SDS011;38687;43.330;21.924;2023-04-01T03:36:55;9.20;;;4.60;;
52816;SDS011;38687;43.330;21.924;2023-04-01T03:39:21;8.07;;;4.60;;
52816;SDS011;38687;43.330;21.924;2023-04-01T03:41:46;12.48;;;4.38;;
52816;SDS011;38687;43.330;21.924;2023-04-01T03:44:12;7.93;;;4.32;;
52816;SDS011;38687;43.330;21.924;2023-04-01T03:46:37;9.80;;;4.50;;
52816;SDS011;38687;43.330;21.924;2023-04-01T03:49:05;7.32;;;3.13;;
52816;SDS011;38687;43.330;21.924;2023-04-01T03:51:36;7.35;;;2.80;;
52816;SDS011;38687;43.330;21.924;2023-04-01T03:54:05;4.22;;;2.75;;
52816;SDS011;38687;43.330;21.924;2023-04-01T03:56:30;4.97;;;2.42;;
52816;SDS011;38687;43.330;21.924;2023-04-01T03:58:56;6.30;;;2.58;;
52816;SDS011;38687;43.330;21.924;2023-04-01T04:01:22;3.42;;;1.92;;
52816;SDS011;38687;43.330;21.924;2023-04-01T04:03:48;5.95;;;2.28;;
52816;SDS011;38687;43.330;21.924;2023-04-01T04:06:14;8.43;;;3.17;;
52816;SDS011;38687;43.330;21.924;2023-04-01T04:08:41;6.25;;;3.67;;
52816;SDS011;38687;43.330;21.924;2023-04-01T04:11:07;10.10;;;4.15;;
52816;SDS011;38687;43.330;21.924;2023-04-01T04:13:33;8.68;;;3.90;;
52816;SDS011;38687;43.330;21.924;2023-04-01T04:15:59;8.45;;;3.45;;
52816;SDS011;38687;43.330;21.924;2023-04-01T04:18:24;6.85;;;2.67;;
52816;SDS011;38687;43.330;21.924;2023-04-01T04:20:50;7.80;;;3.08;;
52816;SDS011;38687;43.330;21.924;2023-04-01T04:23:16;9.55;;;3.00;;
52816;SDS011;38687;43.330;21.924;2023-04-01T04:25:52;4.97;;;2.20;;
52816;SDS011;38687;43.330;21.924;2023-04-01T04:28:22;7.55;;;2.90;;
52816;SDS011;38687;43.330;21.924;2023-04-01T04:30:47;4.03;;;2.60;;
52816;SDS011;38687;43.330;21.924;2023-04-01T04:33:12;7.35;;;3.45;;
52816;SDS011;38687;43.330;21.924;2023-04-01T04:35:38;7.72;;;2.60;;
52816;SDS011;38687;43.330;21.924;2023-04-01T04:38:03;8.25;;;3.80;;
52816;SDS011;38687;43.330;21.924;2023-04-01T04:40:29;4.88;;;3.80;;
52816;SDS011;38687;43.330;21.924;2023-04-01T04:42:54;6.85;;;3.63;;
52816;SDS011;38687;43.330;21.924;2023-04-01T04:45:19;7.78;;;3.20;;
52816;SDS011;38687;43.330;21.924;2023-04-01T04:47:45;7.97;;;3.60;;
52816;SDS011;38687;43.330;21.924;2023-04-01T04:50:10;15.18;;;9.27;;
52816;SDS011;38687;43.330;21.924;2023-04-01T04:52:37;10.90;;;5.35;;
52816;SDS011;38687;43.330;21.924;2023-04-01T04:55:02;7.90;;;3.22;;
52816;SDS011;38687;43.330;21.924;2023-04-01T04:57:28;11.50;;;5.45;;
52816;SDS011;38687;43.330;21.924;2023-04-01T04:59:53;7.63;;;4.60;;
52816;SDS011;38687;43.330;21.924;2023-04-01T05:02:18;7.72;;;4.25;;
52816;SDS011;38687;43.330;21.924;2023-04-01T05:04:44;14.48;;;6.95;;
52816;SDS011;38687;43.330;21.924;2023-04-01T05:07:10;12.48;;;5.90;;
52816;SDS011;38687;43.330;21.924;2023-04-01T05:09:35;14.48;;;7.03;;
52816;SDS011;38687;43.330;21.924;2023-04-01T05:12:01;17.98;;;8.70;;
52816;SDS011;38687;43.330;21.924;2023-04-01T05:14:26;16.13;;;8.20;;
52816;SDS011;38687;43.330;21.924;2023-04-01T05:16:51;12.85;;;5.30;;
52816;SDS011;38687;43.330;21.924;2023-04-01T05:19:17;30.27;;;10.90;;
52816;SDS011;38687;43.330;21.924;2023-04-01T05:21:42;22.88;;;9.07;;
52816;SDS011;38687;43.330;21.924;2023-04-01T05:24:08;22.77;;;11.88;;
52816;SDS011;38687;43.330;21.924;2023-04-01T05:26:34;22.00;;;13.77;;
52816;SDS011;38687;43.330;21.924;2023-04-01T05:29:00;28.90;;;17.00;;
52816;SDS011;38687;43.330;21.924;2023-04-01T05:31:25;25.83;;;14.65;;
52816;SDS011;38687;43.330;21.924;2023-04-01T05:33:51;24.48;;;15.75;;
52816;SDS011;38687;43.330;21.924;2023-04-01T05:36:16;25.35;;;13.52;;
52816;SDS011;38687;43.330;21.924;2023-04-01T05:38:42;25.73;;;12.93;;
52816;SDS011;38687;43.330;21.924;2023-04-01T05:41:08;21.02;;;11.88;;
52816;SDS011;38687;43.330;21.924;2023-04-01T05:43:38;19.83;;;12.15;;
52816;SDS011;38687;43.330;21.924;2023-04-01T05:46:03;19.80;;;12.65;;
52816;SDS011;38687;43.330;21.924;2023-04-01T05:48:29;31.90;;;18.73;;
52816;SDS011;38687;43.330;21.924;2023-04-01T05:50:55;29.90;;;18.13;;
52816;SDS011;38687;43.330;21.924;2023-04-01T05:53:20;30.95;;;18.88;;
52816;SDS011;38687;43.330;21.924;2023-04-01T05:55:45;34.53;;;20.30;;
52816;SDS011;38687;43.330;21.924;2023-04-01T05:58:11;33.60;;;19.15;;
52816;SDS011;38687;43.330;21.924;2023-04-01T06:00:36;37.92;;;22.83;;
52816;SDS011;38687;43.330;21.924;2023-04-01T06:03:02;25.77;;;14.38;;
52816;SDS011;38687;43.330;21.924;2023-04-01T06:05:28;25.60;;;16.10;;
52816;SDS011;38687;43.330;21.924;2023-04-01T06:08:05;26.92;;;15.88;;
52816;SDS011;38687;43.330;21.924;2023-04-01T06:11:19;20.63;;;14.77;;
52816;SDS011;38687;43.330;21.924;2023-04-01T06:16:27;17.77;;;11.85;;
52816;SDS011;38687;43.330;21.924;2023-04-01T06:27:14;32.35;;;19.25;;
52816;SDS011;38687;43.330;21.924;2023-04-01T06:35:18;39.03;;;22.33;;
52816;SDS011;38687;43.330;21.924;2023-04-01T06:48:54;29.98;;;18.25;;
52816;SDS011;38687;43.330;21.924;2023-04-01T06:54:43;39.03;;;21.00;;
52816;SDS011;38687;43.330;21.924;2023-04-01T06:57:28;33.75;;;20.92;;
52816;SDS011;38687;43.330;21.924;2023-04-01T06:59:56;47.90;;;26.05;;
52816;SDS011;38687;43.330;21.924;2023-04-01T07:04:58;38.83;;;23.05;;
52816;SDS011;38687;43.330;21.924;2023-04-01T07:07:41;45.60;;;27.52;;
52816;SDS011;38687;43.330;21.924;2023-04-01T07:10:16;56.85;;;31.77;;
52816;SDS011;38687;43.330;21.924;2023-04-01T07:12:49;58.15;;;33.10;;
52816;SDS011;38687;43.330;21.924;2023-04-01T07:18:22;50.00;;;32.70;;
52816;SDS011;38687;43.330;21.924;2023-04-01T07:20:54;51.67;;;32.92;;
52816;SDS011;38687;43.330;21.924;2023-04-01T07:23:24;48.78;;;29.98;;
52816;SDS011;38687;43.330;21.924;2023-04-01T07:25:55;47.92;;;30.95;;
52816;SDS011;38687;43.330;21.924;2023-04-01T07:28:21;47.63;;;30.05;;
52816;SDS011;38687;43.330;21.924;2023-04-01T07:33:23;68.68;;;45.03;;
52816;SDS011;38687;43.330;21.924;2023-04-01T07:35:57;58.25;;;33.25;;
52816;SDS011;38687;43.330;21.924;2023-04-01T07:44:08;50.90;;;30.73;;
52816;SDS011;38687;43.330;21.924;2023-04-01T07:54:59;44.63;;;25.17;;
52816;SDS011;38687;43.330;21.924;2023-04-01T07:57:30;54.95;;;30.17;;
52816;SDS011;38687;43.330;21.924;2023-04-01T08:00:19;43.97;;;23.95;;
52816;SDS011;38687;43.330;21.924;2023-04-01T08:08:23;76.30;;;37.35;;
52816;SDS011;38687;43.330;21.924;2023-04-01T08:11:06;97.10;;;48.50;;
52816;SDS011;38687;43.330;21.924;2023-04-01T08:13:53;52.42;;;27.17;;
52816;SDS011;38687;43.330;21.924;2023-04-01T08:16:54;49.45;;;25.35;;
52816;SDS011;38687;43.330;21.924;2023-04-01T08:22:23;97.30;;;44.60;;
52816;SDS011;38687;43.330;21.924;2023-04-01T08:24:52;53.83;;;28.08;;
52816;SDS011;38687;43.330;21.924;2023-04-01T08:27:41;50.78;;;22.30;;
52816;SDS011;38687;43.330;21.924;2023-04-01T08:30:26;41.45;;;21.52;;
52816;SDS011;38687;43.330;21.924;2023-04-01T08:33:33;36.78;;;19.98;;
52816;SDS011;38687;43.330;21.924;2023-04-01T08:38:32;42.28;;;23.33;;
52816;SDS011;38687;43.330;21.924;2023-04-01T09:08:33;61.85;;;38.97;;
52816;SDS011;38687;43.330;21.924;2023-04-01T09:11:09;31.05;;;19.23;;
52816;SDS011;38687;43.330;21.924;2023-04-01T09:13:47;37.03;;;23.48;;
52816;SDS011;38687;43.330;21.924;2023-04-01T09:16:40;43.33;;;26.27;;
52816;SDS011;38687;43.330;21.924;2023-04-01T09:21:54;34.15;;;21.40;;
52816;SDS011;38687;43.330;21.924;2023-04-01T09:27:19;28.02;;;17.70;;
52816;SDS011;38687;43.330;21.924;2023-04-01T09:44:30;54.95;;;31.33;;
52816;SDS011;38687;43.330;21.924;2023-04-01T10:20:35;32.88;;;22.23;;
52816;SDS011;38687;43.330;21.924;2023-04-01T10:34:59;11.23;;;7.13;;
52816;SDS011;38687;43.330;21.924;2023-04-01T10:37:34;9.52;;;6.40;;
52816;SDS011;38687;43.330;21.924;2023-04-01T10:54:45;19.20;;;11.45;;
52816;SDS011;38687;43.330;21.924;2023-04-01T11:02:57;13.23;;;10.02;;
52816;SDS011;38687;43.330;21.924;2023-04-01T11:08:32;8.35;;;6.10;;
52816;SDS011;38687;43.330;21.924;2023-04-01T11:11:23;9.85;;;5.97;;
52816;SDS011;38687;43.330;21.924;2023-04-01T11:21:58;20.60;;;13.98;;
52816;SDS011;38687;43.330;21.924;2023-04-01T11:33:16;4.72;;;3.00;;
52816;SDS011;38687;43.330;21.924;2023-04-01T11:36:10;7.03;;;3.20;;
52816;SDS011;38687;43.330;21.924;2023-04-01T11:41:19;9.13;;;4.95;;
52816;SDS011;38687;43.330;21.924;2023-04-01T11:44:16;4.18;;;2.47;;
52816;SDS011;38687;43.330;21.924;2023-04-01T11:53:10;7.03;;;3.13;;
52816;SDS011;38687;43.330;21.924;2023-04-01T11:55:28;6.28;;;3.67;;
52816;SDS011;38687;43.330;21.924;2023-04-01T12:01:14;4.15;;;2.55;;
52816;SDS011;38687;43.330;21.924;2023-04-01T12:03:56;6.53;;;3.90;;
52816;SDS011;38687;43.330;21.924;2023-04-01T12:09:30;6.45;;;3.28;;
52816;SDS011;38687;43.330;21.924;2023-04-01T12:14:53;13.60;;;4.93;;
52816;SDS011;38687;43.330;21.924;2023-04-01T12:17:27;5.57;;;2.95;;
52816;SDS011;38687;43.330;21.924;2023-04-01T12:20:00;3.72;;;3.15;;
52816;SDS011;38687;43.330;21.924;2023-04-01T12:27:58;5.85;;;3.05;;
52816;SDS011;38687;43.330;21.924;2023-04-01T12:30:42;4.75;;;2.67;;
52816;SDS011;38687;43.330;21.924;2023-04-01T12:33:25;5.65;;;2.42;;
52816;SDS011;38687;43.330;21.924;2023-04-01T12:36:06;6.70;;;3.22;;
52816;SDS011;38687;43.330;21.924;2023-04-01T12:39:07;5.65;;;1.50;;
52816;SDS011;38687;43.330;21.924;2023-04-01T12:53:28;8.60;;;5.15;;
52816;SDS011;38687;43.330;21.924;2023-04-01T12:56:01;15.35;;;9.13;;
52816;SDS011;38687;43.330;21.924;2023-04-01T13:01:08;6.15;;;3.95;;
52816;SDS011;38687;43.330;21.924;2023-04-01T13:17:22;8.52;;;4.70;;
52816;SDS011;38687;43.330;21.924;2023-04-01T13:22:26;5.43;;;2.45;;
52816;SDS011;38687;43.330;21.924;2023-04-01T13:28:01;3.72;;;2.00;;
52816;SDS011;38687;43.330;21.924;2023-04-01T13:33:17;4.63;;;3.10;;
52816;SDS011;38687;43.330;21.924;2023-04-01T13:43:31;7.63;;;4.53;;
52816;SDS011;38687;43.330;21.924;2023-04-01T13:46:10;6.68;;;3.83;;
52816;SDS011;38687;43.330;21.924;2023-04-01T13:51:19;5.93;;;3.80;;
52816;SDS011;38687;43.330;21.924;2023-04-01T14:01:50;6.03;;;3.90;;
52816;SDS011;38687;43.330;21.924;2023-04-01T14:10:40;7.57;;;4.32;;
52816;SDS011;38687;43.330;21.924;2023-04-01T14:22:43;3.67;;;2.78;;
52816;SDS011;38687;43.330;21.924;2023-04-01T14:36:30;3.75;;;3.30;;
52816;SDS011;38687;43.330;21.924;2023-04-01T14:49:53;3.20;;;2.50;;
52816;SDS011;38687;43.330;21.924;2023-04-01T14:52:28;2.75;;;2.10;;
52816;SDS011;38687;43.330;21.924;2023-04-01T14:54:56;3.28;;;1.65;;
52816;SDS011;38687;43.330;21.924;2023-04-01T15:00:01;2.40;;;2.03;;
52816;SDS011;38687;43.330;21.924;2023-04-01T15:08:11;5.32;;;2.92;;
52816;SDS011;38687;43.330;21.924;2023-04-01T15:10:58;3.95;;;3.22;;
52816;SDS011;38687;43.330;21.924;2023-04-01T15:13:46;4.47;;;3.42;;
52816;SDS011;38687;43.330;21.924;2023-04-01T15:16:34;5.43;;;3.10;;
52816;SDS011;38687;43.330;21.924;2023-04-01T15:24:21;10.20;;;5.10;;
52816;SDS011;38687;43.330;21.924;2023-04-01T15:42:34;7.43;;;4.47;;
52816;SDS011;38687;43.330;21.924;2023-04-01T15:45:16;20.83;;;9.55;;
52816;SDS011;38687;43.330;21.924;2023-04-01T15:48:25;8.43;;;5.18;;
52816;SDS011;38687;43.330;21.924;2023-04-01T15:50:53;8.18;;;4.65;;
52816;SDS011;38687;43.330;21.924;2023-04-01T15:59:04;28.75;;;13.43;;
52816;SDS011;38687;43.330;21.924;2023-04-01T16:04:32;7.05;;;3.80;;
52816;SDS011;38687;43.330;21.924;2023-04-01T16:12:36;3.60;;;1.70;;
52816;SDS011;38687;43.330;21.924;2023-04-01T16:18:09;7.45;;;3.20;;
52816;SDS011;38687;43.330;21.924;2023-04-01T16:23:13;8.98;;;5.35;;
52816;SDS011;38687;43.330;21.924;2023-04-01T16:25:45;12.55;;;5.97;;
52816;SDS011;38687;43.330;21.924;2023-04-01T16:28:20;8.27;;;4.30;;
52816;SDS011;38687;43.330;21.924;2023-04-01T16:31:06;27.80;;;14.52;;
52816;SDS011;38687;43.330;21.924;2023-04-01T16:36:29;7.28;;;3.58;;
52816;SDS011;38687;43.330;21.924;2023-04-01T16:42:11;3.17;;;1.55;;
52816;SDS011;38687;43.330;21.924;2023-04-01T16:47:15;10.45;;;4.93;;
52816;SDS011;38687;43.330;21.924;2023-04-01T16:49:46;16.35;;;9.35;;
52816;SDS011;38687;43.330;21.924;2023-04-01T16:52:29;3.25;;;2.72;;
52816;SDS011;38687;43.330;21.924;2023-04-01T16:55:16;5.95;;;4.07;;
52816;SDS011;38687;43.330;21.924;2023-04-01T16:57:45;4.30;;;2.53;;
52816;SDS011;38687;43.330;21.924;2023-04-01T17:22:12;34.38;;;16.08;;
52816;SDS011;38687;43.330;21.924;2023-04-01T17:27:29;18.23;;;9.82;;
52816;SDS011;38687;43.330;21.924;2023-04-01T17:30:23;49.30;;;25.42;;
52816;SDS011;38687;43.330;21.924;2023-04-01T17:35:57;8.65;;;5.00;;
52816;SDS011;38687;43.330;21.924;2023-04-01T17:59:53;8.60;;;4.65;;
52816;SDS011;38687;43.330;21.924;2023-04-01T18:05:14;14.05;;;9.55;;
52816;SDS011;38687;43.330;21.924;2023-04-01T18:07:53;5.63;;;3.92;;
52816;SDS011;38687;43.330;21.924;2023-04-01T18:25:50;9.30;;;5.03;;
52816;SDS011;38687;43.330;21.924;2023-04-01T18:36:08;12.13;;;6.85;;
52816;SDS011;38687;43.330;21.924;2023-04-01T18:38:49;18.60;;;10.13;;
52816;SDS011;38687;43.330;21.924;2023-04-01T18:52:21;12.48;;;7.07;;
52816;SDS011;38687;43.330;21.924;2023-04-01T18:57:27;22.65;;;15.00;;
52816;SDS011;38687;43.330;21.924;2023-04-01T19:00:27;18.27;;;9.73;;
52816;SDS011;38687;43.330;21.924;2023-04-01T19:05:31;38.63;;;19.92;;
52816;SDS011;38687;43.330;21.924;2023-04-01T19:13:34;47.83;;;28.20;;
52816;SDS011;38687;43.330;21.924;2023-04-01T19:19:13;52.95;;;29.38;;
52816;SDS011;38687;43.330;21.924;2023-04-01T19:22:24;53.38;;;31.10;;
52816;SDS011;38687;43.330;21.924;2023-04-01T19:25:14;55.60;;;33.90;;
52816;SDS011;38687;43.330;21.924;2023-04-01T19:42:15;59.95;;;38.25;;
52816;SDS011;38687;43.330;21.924;2023-04-01T19:50:27;61.70;;;37.75;;
52816;SDS011;38687;43.330;21.924;2023-04-01T19:53:10;70.88;;;43.67;;
52816;SDS011;38687;43.330;21.924;2023-04-01T19:56:25;81.72;;;48.90;;
52816;SDS011;38687;43.330;21.924;2023-04-01T19:59:09;325.98;;;144.18;;
52816;SDS011;38687;43.330;21.924;2023-04-01T20:04:30;97.70;;;55.20;;
52816;SDS011;38687;43.330;21.924;2023-04-01T20:07:26;96.20;;;51.33;;
52816;SDS011;38687;43.330;21.924;2023-04-01T20:12:40;71.55;;;43.55;;
52816;SDS011;38687;43.330;21.924;2023-04-01T20:15:55;65.65;;;40.60;;
52816;SDS011;38687;43.330;21.924;2023-04-01T20:21:00;78.13;;;47.10;;
52816;SDS011;38687;43.330;21.924;2023-04-01T20:26:34;84.75;;;49.13;;
52816;SDS011;38687;43.330;21.924;2023-04-01T20:31:58;65.75;;;37.17;;
52816;SDS011;38687;43.330;21.924;2023-04-01T20:34:36;62.83;;;37.45;;
52816;SDS011;38687;43.330;21.924;2023-04-01T20:37:15;58.90;;;37.47;;
52816;SDS011;38687;43.330;21.924;2023-04-01T20:51:06;48.95;;;27.10;;
52816;SDS011;38687;43.330;21.924;2023-04-01T21:04:23;58.13;;;35.88;;
52816;SDS011;38687;43.330;21.924;2023-04-01T21:07:19;45.95;;;30.00;;
52816;SDS011;38687;43.330;21.924;2023-04-01T21:15:47;76.65;;;42.53;;
52816;SDS011;38687;43.330;21.924;2023-04-01T21:24:00;76.60;;;40.03;;
52816;SDS011;38687;43.330;21.924;2023-04-01T21:31:47;65.70;;;33.60;;
52816;SDS011;38687;43.330;21.924;2023-04-01T21:34:42;89.68;;;46.40;;
52816;SDS011;38687;43.330;21.924;2023-04-01T21:40:11;39.67;;;23.27;;
52816;SDS011;38687;43.330;21.924;2023-04-01T21:43:17;43.33;;;26.13;;
52816;SDS011;38687;43.330;21.924;2023-04-01T21:57:26;55.60;;;26.02;;
52816;SDS011;38687;43.330;21.924;2023-04-01T22:05:24;29.58;;;17.73;;
52816;SDS011;38687;43.330;21.924;2023-04-01T22:10:49;33.92;;;17.60;;
52816;SDS011;38687;43.330;21.924;2023-04-01T22:18:38;43.35;;;24.70;;
52816;SDS011;38687;43.330;21.924;2023-04-01T22:29:43;59.53;;;32.05;;
52816;SDS011;38687;43.330;21.924;2023-04-01T22:32:21;52.05;;;28.50;;
52816;SDS011;38687;43.330;21.924;2023-04-01T22:40:21;44.95;;;25.80;;
52816;SDS011;38687;43.330;21.924;2023-04-01T22:43:54;42.03;;;25.17;;
52816;SDS011;38687;43.330;21.924;2023-04-01T22:48:37;49.78;;;25.13;;
52816;SDS011;38687;43.330;21.924;2023-04-01T22:56:07;48.67;;;25.38;;
52816;SDS011;38687;43.330;21.924;2023-04-01T22:59:00;47.67;;;23.08;;
52816;SDS011;38687;43.330;21.924;2023-04-01T23:01:34;54.33;;;26.20;;
52816;SDS011;38687;43.330;21.924;2023-04-01T23:04:04;64.50;;;32.10;;
52816;SDS011;38687;43.330;21.924;2023-04-01T23:06:33;78.15;;;38.88;;
52816;SDS011;38687;43.330;21.924;2023-04-01T23:09:11;84.75;;;44.95;;
52816;SDS011;38687;43.330;21.924;2023-04-01T23:11:54;65.32;;;29.02;;
52816;SDS011;38687;43.330;21.924;2023-04-01T23:17:12;52.60;;;24.77;;
52816;SDS011;38687;43.330;21.924;2023-04-01T23:19:54;51.05;;;25.05;;
52816;SDS011;38687;43.330;21.924;2023-04-01T23:22:27;35.05;;;17.73;;
52816;SDS011;38687;43.330;21.924;2023-04-01T23:28:29;19.95;;;11.63;;
52816;SDS011;38687;43.330;21.924;2023-04-01T23:30:46;14.07;;;8.38;;
52816;SDS011;38687;43.330;21.924;2023-04-01T23:38:14;10.75;;;8.23;;
52816;SDS011;38687;43.330;21.924;2023-04-01T23:40:39;12.32;;;8.02;;
52816;SDS011;38687;43.330;21.924;2023-04-01T23:43:21;13.30;;;9.82;;
52816;SDS011;38687;43.330;21.924;2023-04-01T23:45:49;17.17;;;9.50;;
52816;SDS011;38687;43.330;21.924;2023-04-01T23:48:15;22.30;;;13.05;;
52816;SDS011;38687;43.330;21.924;2023-04-01T23:50:41;20.88;;;11.98;;
52816;SDS011;38687;43.330;21.924;2023-04-01T23:53:17;19.33;;;10.65;;
52816;SDS011;38687;43.330;21.924;2023-04-01T23:55:44;24.88;;;12.48;;
52816;SDS011;38687;43.330;21.924;2023-04-01T23:58:21;23.70;;;11.60;;
